sensor_id;sensor_type;location;lat;lon;timestamp;temperature;humidity
39493;DHT22;25176;51.060;3.720;2023-01-29T00:00:30;4.50;99.90
39493;DHT22;25176;51.060;3.720;2023-01-29T00:02:56;4.50;99.90
39493;DHT22;25176;51.060;3.720;2023-01-29T00:05:21;4.50;99.90
39493;DHT22;25176;51.060;3.720;2023-01-29T00:07:47;4.50;99.90
39493;DHT22;25176;51.060;3.720;2023-01-29T00:10:12;4.50;99.90
39493;DHT22;25176;51.060;3.720;2023-01-29T00:12:38;4.40;99.90
39493;DHT22;25176;51.060;3.720;2023-01-29T00:15:04;4.40;99.90
39493;DHT22;25176;51.060;3.720;2023-01-29T00:17:29;4.30;99.90
39493;DHT22;25176;51.060;3.720;2023-01-29T00:19:55;4.30;99.90
39493;DHT22;25176;51.060;3.720;2023-01-29T00:22:20;4.30;99.90
39493;DHT22;25176;51.060;3.720;2023-01-29T00:24:46;4.30;99.90
39493;DHT22;25176;51.060;3.720;2023-01-29T00:27:11;4.20;99.90
39493;DHT22;25176;51.060;3.720;2023-01-29T00:29:37;4.20;99.90
39493;DHT22;25176;51.060;3.720;2023-01-29T00:32:02;4.20;99.90
39493;DHT22;25176;51.060;3.720;2023-01-29T00:34:28;4.20;99.90
39493;DHT22;25176;51.060;3.720;2023-01-29T00:36:53;4.30;99.90
39493;DHT22;25176;51.060;3.720;2023-01-29T00:39:30;4.20;99.90
39493;DHT22;25176;51.060;3.720;2023-01-29T00:42:03;4.10;99.90
39493;DHT22;25176;51.060;3.720;2023-01-29T00:44:47;4.20;99.90
39493;DHT22;25176;51.060;3.720;2023-01-29T00:47:22;4.20;99.90
39493;DHT22;25176;51.060;3.720;2023-01-29T00:50:08;4.20;99.90
39493;DHT22;25176;51.060;3.720;2023-01-29T00:52:33;4.20;99.90
39493;DHT22;25176;51.060;3.720;2023-01-29T00:55:01;4.20;99.90
39493;DHT22;25176;51.060;3.720;2023-01-29T00:57:27;4.20;99.90
39493;DHT22;25176;51.060;3.720;2023-01-29T00:59:53;4.20;99.90
39493;DHT22;25176;51.060;3.720;2023-01-29T01:02:19;4.10;99.90
39493;DHT22;25176;51.060;3.720;2023-01-29T01:05:04;4.10;99.90
39493;DHT22;25176;51.060;3.720;2023-01-29T01:07:32;4.10;99.90
39493;DHT22;25176;51.060;3.720;2023-01-29T01:09:57;4.20;99.90
39493;DHT22;25176;51.060;3.720;2023-01-29T01:12:41;4.10;99.90
39493;DHT22;25176;51.060;3.720;2023-01-29T01:15:07;4.20;99.90
39493;DHT22;25176;51.060;3.720;2023-01-29T01:17:33;4.20;99.90
39493;DHT22;25176;51.060;3.720;2023-01-29T01:19:59;4.20;99.90
39493;DHT22;25176;51.060;3.720;2023-01-29T01:22:24;4.20;99.90
39493;DHT22;25176;51.060;3.720;2023-01-29T01:24:50;4.30;99.90
39493;DHT22;25176;51.060;3.720;2023-01-29T01:27:15;4.40;99.90
39493;DHT22;25176;51.060;3.720;2023-01-29T01:29:41;4.40;99.90
39493;DHT22;25176;51.060;3.720;2023-01-29T01:32:07;4.40;99.90
39493;DHT22;25176;51.060;3.720;2023-01-29T01:34:32;4.30;99.90
39493;DHT22;25176;51.060;3.720;2023-01-29T01:36:58;4.30;99.90
39493;DHT22;25176;51.060;3.720;2023-01-29T01:39:23;4.40;99.90
39493;DHT22;25176;51.060;3.720;2023-01-29T01:41:49;4.50;99.90
39493;DHT22;25176;51.060;3.720;2023-01-29T01:47:00;4.40;99.90
39493;DHT22;25176;51.060;3.720;2023-01-29T01:49:26;4.50;99.90
39493;DHT22;25176;51.060;3.720;2023-01-29T01:51:51;4.50;99.90
39493;DHT22;25176;51.060;3.720;2023-01-29T01:54:22;4.50;99.90
39493;DHT22;25176;51.060;3.720;2023-01-29T01:56:52;4.60;99.90
39493;DHT22;25176;51.060;3.720;2023-01-29T01:59:20;4.40;99.90
39493;DHT22;25176;51.060;3.720;2023-01-29T02:01:47;4.60;99.90
39493;DHT22;25176;51.060;3.720;2023-01-29T02:04:19;4.50;99.90
39493;DHT22;25176;51.060;3.720;2023-01-29T02:07:04;4.50;99.90
39493;DHT22;25176;51.060;3.720;2023-01-29T02:09:55;4.50;99.90
39493;DHT22;25176;51.060;3.720;2023-01-29T02:12:24;4.40;99.90
39493;DHT22;25176;51.060;3.720;2023-01-29T02:14:50;4.50;99.90
39493;DHT22;25176;51.060;3.720;2023-01-29T02:17:16;4.60;99.90
39493;DHT22;25176;51.060;3.720;2023-01-29T02:22:15;4.70;99.90
39493;DHT22;25176;51.060;3.720;2023-01-29T02:24:52;4.70;99.90
39493;DHT22;25176;51.060;3.720;2023-01-29T02:27:27;4.80;99.90
39493;DHT22;25176;51.060;3.720;2023-01-29T02:34:54;4.80;99.90
39493;DHT22;25176;51.060;3.720;2023-01-29T02:40:33;4.80;99.90
39493;DHT22;25176;51.060;3.720;2023-01-29T02:45:41;4.70;99.90
39493;DHT22;25176;51.060;3.720;2023-01-29T02:48:07;4.70;99.90
39493;DHT22;25176;51.060;3.720;2023-01-29T02:50:47;4.70;99.90
39493;DHT22;25176;51.060;3.720;2023-01-29T02:53:14;4.70;99.90
39493;DHT22;25176;51.060;3.720;2023-01-29T02:55:41;4.70;99.90
39493;DHT22;25176;51.060;3.720;2023-01-29T03:00:52;4.70;99.90
39493;DHT22;25176;51.060;3.720;2023-01-29T03:03:20;4.70;99.90
39493;DHT22;25176;51.060;3.720;2023-01-29T03:05:53;4.80;99.90
39493;DHT22;25176;51.060;3.720;2023-01-29T03:08:27;4.80;99.90
39493;DHT22;25176;51.060;3.720;2023-01-29T03:11:04;4.80;99.90
39493;DHT22;25176;51.060;3.720;2023-01-29T03:15:59;4.80;99.90
39493;DHT22;25176;51.060;3.720;2023-01-29T03:18:27;4.80;99.90
39493;DHT22;25176;51.060;3.720;2023-01-29T03:20:57;4.90;99.90
39493;DHT22;25176;51.060;3.720;2023-01-29T03:23:28;4.80;99.90
39493;DHT22;25176;51.060;3.720;2023-01-29T03:26:16;4.80;99.90
39493;DHT22;25176;51.060;3.720;2023-01-29T03:29:02;4.90;99.90
39493;DHT22;25176;51.060;3.720;2023-01-29T03:31:47;4.80;99.90
39493;DHT22;25176;51.060;3.720;2023-01-29T03:34:28;4.90;99.90
39493;DHT22;25176;51.060;3.720;2023-01-29T03:37:03;5.00;99.90
39493;DHT22;25176;51.060;3.720;2023-01-29T03:39:31;5.00;99.90
39493;DHT22;25176;51.060;3.720;2023-01-29T03:42:04;5.10;99.90
39493;DHT22;25176;51.060;3.720;2023-01-29T03:47:16;5.20;99.90
39493;DHT22;25176;51.060;3.720;2023-01-29T03:52:14;5.10;99.90
39493;DHT22;25176;51.060;3.720;2023-01-29T03:57:13;4.90;99.90
39493;DHT22;25176;51.060;3.720;2023-01-29T03:59:47;4.90;99.90
39493;DHT22;25176;51.060;3.720;2023-01-29T04:02:16;4.90;99.90
39493;DHT22;25176;51.060;3.720;2023-01-29T04:04:44;4.90;99.90
39493;DHT22;25176;51.060;3.720;2023-01-29T04:07:15;5.00;99.90
39493;DHT22;25176;51.060;3.720;2023-01-29T04:09:45;5.10;99.90
39493;DHT22;25176;51.060;3.720;2023-01-29T04:12:12;5.20;99.90
39493;DHT22;25176;51.060;3.720;2023-01-29T04:14:38;5.10;99.90
39493;DHT22;25176;51.060;3.720;2023-01-29T04:17:09;5.10;99.90
39493;DHT22;25176;51.060;3.720;2023-01-29T04:19:35;5.10;99.90
39493;DHT22;25176;51.060;3.720;2023-01-29T04:22:03;5.10;99.90
39493;DHT22;25176;51.060;3.720;2023-01-29T04:24:30;5.10;99.90
39493;DHT22;25176;51.060;3.720;2023-01-29T04:32:20;5.20;99.90
39493;DHT22;25176;51.060;3.720;2023-01-29T04:35:10;5.20;99.90
39493;DHT22;25176;51.060;3.720;2023-01-29T04:37:39;5.10;99.90
39493;DHT22;25176;51.060;3.720;2023-01-29T04:40:19;5.20;99.90
39493;DHT22;25176;51.060;3.720;2023-01-29T04:50:44;5.20;99.90
39493;DHT22;25176;51.060;3.720;2023-01-29T04:56:00;5.20;99.90
39493;DHT22;25176;51.060;3.720;2023-01-29T04:58:38;5.20;99.80
39493;DHT22;25176;51.060;3.720;2023-01-29T05:01:05;5.30;99.90
39493;DHT22;25176;51.060;3.720;2023-01-29T05:03:31;5.20;99.90
39493;DHT22;25176;51.060;3.720;2023-01-29T05:05:57;5.30;99.90
39493;DHT22;25176;51.060;3.720;2023-01-29T05:08:24;5.30;99.80
39493;DHT22;25176;51.060;3.720;2023-01-29T05:10:50;5.10;99.90
39493;DHT22;25176;51.060;3.720;2023-01-29T05:13:17;5.00;99.90
39493;DHT22;25176;51.060;3.720;2023-01-29T05:15:48;5.00;99.90
39493;DHT22;25176;51.060;3.720;2023-01-29T05:18:14;5.20;99.90
39493;DHT22;25176;51.060;3.720;2023-01-29T05:20:40;5.20;99.90
39493;DHT22;25176;51.060;3.720;2023-01-29T05:23:25;5.30;99.90
39493;DHT22;25176;51.060;3.720;2023-01-29T05:25:50;5.10;99.90
39493;DHT22;25176;51.060;3.720;2023-01-29T05:28:16;4.90;99.90
39493;DHT22;25176;51.060;3.720;2023-01-29T05:30:43;5.00;99.90
39493;DHT22;25176;51.060;3.720;2023-01-29T05:33:11;5.10;99.90
39493;DHT22;25176;51.060;3.720;2023-01-29T05:35:37;5.20;99.90
39493;DHT22;25176;51.060;3.720;2023-01-29T05:38:02;5.40;99.90
39493;DHT22;25176;51.060;3.720;2023-01-29T05:40:28;5.30;99.90
39493;DHT22;25176;51.060;3.720;2023-01-29T05:42:54;5.30;99.90
39493;DHT22;25176;51.060;3.720;2023-01-29T05:45:19;5.10;99.90
39493;DHT22;25176;51.060;3.720;2023-01-29T05:47:45;5.10;99.90
39493;DHT22;25176;51.060;3.720;2023-01-29T05:50:10;5.30;99.90
39493;DHT22;25176;51.060;3.720;2023-01-29T05:52:36;5.30;99.90
39493;DHT22;25176;51.060;3.720;2023-01-29T05:55:02;5.30;99.90
39493;DHT22;25176;51.060;3.720;2023-01-29T05:57:28;5.40;99.90
39493;DHT22;25176;51.060;3.720;2023-01-29T05:59:53;5.40;99.90
39493;DHT22;25176;51.060;3.720;2023-01-29T06:02:19;5.30;99.90
39493;DHT22;25176;51.060;3.720;2023-01-29T06:04:45;5.20;99.90
39493;DHT22;25176;51.060;3.720;2023-01-29T06:07:10;5.00;99.90
39493;DHT22;25176;51.060;3.720;2023-01-29T06:09:36;4.80;99.90
39493;DHT22;25176;51.060;3.720;2023-01-29T06:12:02;4.90;99.90
39493;DHT22;25176;51.060;3.720;2023-01-29T06:14:27;5.00;99.90
39493;DHT22;25176;51.060;3.720;2023-01-29T06:16:53;4.90;99.90
39493;DHT22;25176;51.060;3.720;2023-01-29T06:19:18;4.80;99.90
39493;DHT22;25176;51.060;3.720;2023-01-29T06:21:44;4.80;99.90
39493;DHT22;25176;51.060;3.720;2023-01-29T06:24:10;4.90;99.90
39493;DHT22;25176;51.060;3.720;2023-01-29T06:26:35;5.10;99.90
39493;DHT22;25176;51.060;3.720;2023-01-29T06:29:01;5.00;99.90
39493;DHT22;25176;51.060;3.720;2023-01-29T06:31:26;5.10;99.90
39493;DHT22;25176;51.060;3.720;2023-01-29T06:33:52;5.20;99.90
39493;DHT22;25176;51.060;3.720;2023-01-29T06:36:17;5.10;99.90
39493;DHT22;25176;51.060;3.720;2023-01-29T06:38:43;5.00;99.90
39493;DHT22;25176;51.060;3.720;2023-01-29T06:41:12;4.90;99.90
39493;DHT22;25176;51.060;3.720;2023-01-29T06:43:38;4.90;99.90
39493;DHT22;25176;51.060;3.720;2023-01-29T06:46:05;5.00;99.90
39493;DHT22;25176;51.060;3.720;2023-01-29T06:48:31;5.00;99.90
39493;DHT22;25176;51.060;3.720;2023-01-29T06:51:00;5.00;99.90
39493;DHT22;25176;51.060;3.720;2023-01-29T06:53:25;5.00;99.90
39493;DHT22;25176;51.060;3.720;2023-01-29T06:55:51;5.00;99.90
39493;DHT22;25176;51.060;3.720;2023-01-29T06:58:17;5.00;99.90
39493;DHT22;25176;51.060;3.720;2023-01-29T07:00:43;5.00;99.90
39493;DHT22;25176;51.060;3.720;2023-01-29T07:03:08;5.00;99.90
39493;DHT22;25176;51.060;3.720;2023-01-29T07:05:34;5.00;99.90
39493;DHT22;25176;51.060;3.720;2023-01-29T07:08:00;5.00;99.90
39493;DHT22;25176;51.060;3.720;2023-01-29T07:10:25;5.20;99.90
39493;DHT22;25176;51.060;3.720;2023-01-29T07:12:51;5.20;99.90
39493;DHT22;25176;51.060;3.720;2023-01-29T07:15:16;5.10;99.90
39493;DHT22;25176;51.060;3.720;2023-01-29T07:17:57;5.10;99.90
39493;DHT22;25176;51.060;3.720;2023-01-29T07:20:24;5.20;99.90
39493;DHT22;25176;51.060;3.720;2023-01-29T07:22:50;5.20;99.90
39493;DHT22;25176;51.060;3.720;2023-01-29T07:25:15;5.30;99.90
39493;DHT22;25176;51.060;3.720;2023-01-29T07:27:41;5.20;99.90
39493;DHT22;25176;51.060;3.720;2023-01-29T07:30:06;5.20;99.90
39493;DHT22;25176;51.060;3.720;2023-01-29T07:32:32;5.10;99.90
39493;DHT22;25176;51.060;3.720;2023-01-29T07:34:57;5.10;99.90
39493;DHT22;25176;51.060;3.720;2023-01-29T07:37:23;5.10;99.90
39493;DHT22;25176;51.060;3.720;2023-01-29T07:39:48;5.10;99.90
39493;DHT22;25176;51.060;3.720;2023-01-29T07:42:14;5.10;99.90
39493;DHT22;25176;51.060;3.720;2023-01-29T07:44:39;5.00;99.90
39493;DHT22;25176;51.060;3.720;2023-01-29T07:47:05;5.10;99.90
39493;DHT22;25176;51.060;3.720;2023-01-29T07:49:30;5.10;99.90
39493;DHT22;25176;51.060;3.720;2023-01-29T07:51:56;5.00;99.90
39493;DHT22;25176;51.060;3.720;2023-01-29T07:54:21;5.00;99.90
39493;DHT22;25176;51.060;3.720;2023-01-29T07:56:47;5.00;99.90
39493;DHT22;25176;51.060;3.720;2023-01-29T07:59:12;5.20;99.90
39493;DHT22;25176;51.060;3.720;2023-01-29T08:01:38;5.20;99.90
39493;DHT22;25176;51.060;3.720;2023-01-29T08:04:03;5.20;99.90
39493;DHT22;25176;51.060;3.720;2023-01-29T08:06:29;5.30;99.90
39493;DHT22;25176;51.060;3.720;2023-01-29T08:08:54;5.30;99.90
39493;DHT22;25176;51.060;3.720;2023-01-29T08:11:21;5.30;99.90
39493;DHT22;25176;51.060;3.720;2023-01-29T08:13:47;5.40;99.90
39493;DHT22;25176;51.060;3.720;2023-01-29T08:16:12;5.40;99.90
39493;DHT22;25176;51.060;3.720;2023-01-29T08:18:38;5.40;99.90
39493;DHT22;25176;51.060;3.720;2023-01-29T08:21:06;5.30;99.90
39493;DHT22;25176;51.060;3.720;2023-01-29T08:23:32;5.30;99.90
39493;DHT22;25176;51.060;3.720;2023-01-29T08:25:57;5.20;99.90
39493;DHT22;25176;51.060;3.720;2023-01-29T08:28:23;5.20;99.90
39493;DHT22;25176;51.060;3.720;2023-01-29T08:30:48;5.30;99.90
39493;DHT22;25176;51.060;3.720;2023-01-29T08:33:14;5.40;99.90
39493;DHT22;25176;51.060;3.720;2023-01-29T08:35:39;5.40;99.90
39493;DHT22;25176;51.060;3.720;2023-01-29T08:38:05;5.40;99.90
39493;DHT22;25176;51.060;3.720;2023-01-29T08:40:32;5.40;99.90
39493;DHT22;25176;51.060;3.720;2023-01-29T08:42:59;5.40;99.90
39493;DHT22;25176;51.060;3.720;2023-01-29T08:45:24;5.40;99.90
39493;DHT22;25176;51.060;3.720;2023-01-29T08:47:50;5.50;99.90
39493;DHT22;25176;51.060;3.720;2023-01-29T08:50:16;5.60;99.90
39493;DHT22;25176;51.060;3.720;2023-01-29T08:52:41;5.40;99.90
39493;DHT22;25176;51.060;3.720;2023-01-29T08:55:07;5.30;99.90
39493;DHT22;25176;51.060;3.720;2023-01-29T08:57:33;5.40;99.90
39493;DHT22;25176;51.060;3.720;2023-01-29T08:59:58;5.50;99.90
39493;DHT22;25176;51.060;3.720;2023-01-29T09:02:24;5.50;99.90
39493;DHT22;25176;51.060;3.720;2023-01-29T09:04:49;5.70;99.90
39493;DHT22;25176;51.060;3.720;2023-01-29T09:07:15;5.60;99.90
39493;DHT22;25176;51.060;3.720;2023-01-29T09:09:40;5.60;99.90
39493;DHT22;25176;51.060;3.720;2023-01-29T09:12:06;5.60;99.90
39493;DHT22;25176;51.060;3.720;2023-01-29T09:14:31;5.70;99.90
39493;DHT22;25176;51.060;3.720;2023-01-29T09:16:57;5.60;99.90
39493;DHT22;25176;51.060;3.720;2023-01-29T09:19:22;5.50;99.90
39493;DHT22;25176;51.060;3.720;2023-01-29T09:21:48;5.60;99.90
39493;DHT22;25176;51.060;3.720;2023-01-29T09:24:14;5.50;99.90
39493;DHT22;25176;51.060;3.720;2023-01-29T09:26:39;5.70;99.90
39493;DHT22;25176;51.060;3.720;2023-01-29T09:29:05;5.60;99.90
39493;DHT22;25176;51.060;3.720;2023-01-29T09:31:31;5.60;99.90
39493;DHT22;25176;51.060;3.720;2023-01-29T09:33:56;5.60;99.90
39493;DHT22;25176;51.060;3.720;2023-01-29T09:36:22;5.40;99.90
39493;DHT22;25176;51.060;3.720;2023-01-29T09:38:47;5.40;99.90
39493;DHT22;25176;51.060;3.720;2023-01-29T09:43:46;5.40;99.90
39493;DHT22;25176;51.060;3.720;2023-01-29T09:46:21;5.60;99.90
39493;DHT22;25176;51.060;3.720;2023-01-29T09:48:49;5.80;99.90
39493;DHT22;25176;51.060;3.720;2023-01-29T09:51:24;5.80;99.90
39493;DHT22;25176;51.060;3.720;2023-01-29T09:54:04;5.80;99.90
39493;DHT22;25176;51.060;3.720;2023-01-29T09:56:32;5.80;99.80
39493;DHT22;25176;51.060;3.720;2023-01-29T09:58:59;5.80;99.90
39493;DHT22;25176;51.060;3.720;2023-01-29T10:01:44;5.80;99.90
39493;DHT22;25176;51.060;3.720;2023-01-29T10:09:37;5.90;99.90
39493;DHT22;25176;51.060;3.720;2023-01-29T10:12:17;5.90;99.80
39493;DHT22;25176;51.060;3.720;2023-01-29T10:14:51;6.00;99.70
39493;DHT22;25176;51.060;3.720;2023-01-29T10:17:34;5.90;99.60
39493;DHT22;25176;51.060;3.720;2023-01-29T10:25:03;5.90;99.90
39493;DHT22;25176;51.060;3.720;2023-01-29T10:27:30;5.90;99.90
39493;DHT22;25176;51.060;3.720;2023-01-29T10:29:56;6.00;99.90
39493;DHT22;25176;51.060;3.720;2023-01-29T10:32:24;6.00;99.90
39493;DHT22;25176;51.060;3.720;2023-01-29T10:34:57;6.20;99.70
39493;DHT22;25176;51.060;3.720;2023-01-29T10:37:27;6.20;99.70
39493;DHT22;25176;51.060;3.720;2023-01-29T10:39:55;6.40;99.30
39493;DHT22;25176;51.060;3.720;2023-01-29T11:00:40;6.60;99.20
39493;DHT22;25176;51.060;3.720;2023-01-29T11:03:16;6.70;99.10
39493;DHT22;25176;51.060;3.720;2023-01-29T11:05:44;6.80;99.10
39493;DHT22;25176;51.060;3.720;2023-01-29T11:08:14;6.70;99.10
39493;DHT22;25176;51.060;3.720;2023-01-29T11:10:41;7.00;99.20
39493;DHT22;25176;51.060;3.720;2023-01-29T11:13:10;7.10;98.70
39493;DHT22;25176;51.060;3.720;2023-01-29T11:15:37;7.10;98.50
39493;DHT22;25176;51.060;3.720;2023-01-29T11:20:29;7.30;98.30
39493;DHT22;25176;51.060;3.720;2023-01-29T11:22:55;7.30;98.10
39493;DHT22;25176;51.060;3.720;2023-01-29T11:25:20;7.20;98.00
39493;DHT22;25176;51.060;3.720;2023-01-29T11:30:17;7.30;98.00
39493;DHT22;25176;51.060;3.720;2023-01-29T11:32:43;7.60;97.80
39493;DHT22;25176;51.060;3.720;2023-01-29T11:37:40;7.40;97.50
39493;DHT22;25176;51.060;3.720;2023-01-29T11:42:46;7.30;97.80
39493;DHT22;25176;51.060;3.720;2023-01-29T11:45:31;7.10;97.80
39493;DHT22;25176;51.060;3.720;2023-01-29T11:47:59;7.20;98.20
39493;DHT22;25176;51.060;3.720;2023-01-29T11:50:26;7.30;97.90
39493;DHT22;25176;51.060;3.720;2023-01-29T11:52:52;7.30;97.90
39493;DHT22;25176;51.060;3.720;2023-01-29T11:55:18;7.30;97.80
39493;DHT22;25176;51.060;3.720;2023-01-29T11:57:45;7.30;97.70
39493;DHT22;25176;51.060;3.720;2023-01-29T12:02:44;7.30;97.80
39493;DHT22;25176;51.060;3.720;2023-01-29T12:05:21;7.40;97.80
39493;DHT22;25176;51.060;3.720;2023-01-29T12:07:48;7.30;97.90
39493;DHT22;25176;51.060;3.720;2023-01-29T12:13:05;7.20;97.90
39493;DHT22;25176;51.060;3.720;2023-01-29T12:15:31;7.30;97.80
39493;DHT22;25176;51.060;3.720;2023-01-29T12:20:24;7.20;97.60
39493;DHT22;25176;51.060;3.720;2023-01-29T12:22:55;7.40;97.50
39493;DHT22;25176;51.060;3.720;2023-01-29T12:25:25;7.20;97.50
39493;DHT22;25176;51.060;3.720;2023-01-29T12:30:35;7.10;97.80
39493;DHT22;25176;51.060;3.720;2023-01-29T12:33:14;7.20;98.00
39493;DHT22;25176;51.060;3.720;2023-01-29T12:35:45;7.20;97.80
39493;DHT22;25176;51.060;3.720;2023-01-29T12:38:14;7.20;97.80
39493;DHT22;25176;51.060;3.720;2023-01-29T12:40:43;7.20;97.80
39493;DHT22;25176;51.060;3.720;2023-01-29T12:43:13;7.20;98.00
39493;DHT22;25176;51.060;3.720;2023-01-29T12:45:39;7.30;97.80
39493;DHT22;25176;51.060;3.720;2023-01-29T12:48:07;7.30;98.10
39493;DHT22;25176;51.060;3.720;2023-01-29T12:50:34;7.20;98.00
39493;DHT22;25176;51.060;3.720;2023-01-29T12:55:39;7.30;98.20
39493;DHT22;25176;51.060;3.720;2023-01-29T12:58:14;7.30;98.50
39493;DHT22;25176;51.060;3.720;2023-01-29T13:00:43;7.40;98.10
39493;DHT22;25176;51.060;3.720;2023-01-29T13:03:15;7.40;98.00
39493;DHT22;25176;51.060;3.720;2023-01-29T13:05:46;7.30;98.10
39493;DHT22;25176;51.060;3.720;2023-01-29T13:08:13;7.20;98.20
39493;DHT22;25176;51.060;3.720;2023-01-29T13:10:42;7.20;98.60
39493;DHT22;25176;51.060;3.720;2023-01-29T13:15:37;7.40;98.00
39493;DHT22;25176;51.060;3.720;2023-01-29T13:20:47;7.30;98.20
39493;DHT22;25176;51.060;3.720;2023-01-29T13:23:20;7.40;98.30
39493;DHT22;25176;51.060;3.720;2023-01-29T13:25:52;7.40;98.30
39493;DHT22;25176;51.060;3.720;2023-01-29T13:28:19;7.40;98.20
39493;DHT22;25176;51.060;3.720;2023-01-29T13:30:45;7.40;98.20
39493;DHT22;25176;51.060;3.720;2023-01-29T13:33:18;7.10;98.70
39493;DHT22;25176;51.060;3.720;2023-01-29T13:35:45;7.20;98.70
39493;DHT22;25176;51.060;3.720;2023-01-29T13:38:27;7.20;98.70
39493;DHT22;25176;51.060;3.720;2023-01-29T13:40:54;7.20;98.60
39493;DHT22;25176;51.060;3.720;2023-01-29T13:43:22;7.30;98.80
39493;DHT22;25176;51.060;3.720;2023-01-29T13:45:48;7.40;98.60
39493;DHT22;25176;51.060;3.720;2023-01-29T13:50:47;7.40;98.80
39493;DHT22;25176;51.060;3.720;2023-01-29T13:53:22;7.50;98.80
39493;DHT22;25176;51.060;3.720;2023-01-29T13:55:48;7.50;98.60
39493;DHT22;25176;51.060;3.720;2023-01-29T13:58:15;7.50;98.50
39493;DHT22;25176;51.060;3.720;2023-01-29T14:05:40;7.30;99.00
39493;DHT22;25176;51.060;3.720;2023-01-29T14:10:32;7.50;98.70
39493;DHT22;25176;51.060;3.720;2023-01-29T14:16:27;7.40;98.60
39493;DHT22;25176;51.060;3.720;2023-01-29T14:18:31;7.30;99.00
39493;DHT22;25176;51.060;3.720;2023-01-29T14:23:27;7.20;98.90
39493;DHT22;25176;51.060;3.720;2023-01-29T14:25:54;7.20;99.30
39493;DHT22;25176;51.060;3.720;2023-01-29T14:28:21;7.30;99.10
39493;DHT22;25176;51.060;3.720;2023-01-29T14:30:47;7.40;99.10
39493;DHT22;25176;51.060;3.720;2023-01-29T14:35:51;7.50;98.80
39493;DHT22;25176;51.060;3.720;2023-01-29T14:38:17;7.50;98.90
39493;DHT22;25176;51.060;3.720;2023-01-29T14:40:44;7.40;99.00
39493;DHT22;25176;51.060;3.720;2023-01-29T14:43:19;7.40;99.20
39493;DHT22;25176;51.060;3.720;2023-01-29T14:45:46;7.40;99.10
39493;DHT22;25176;51.060;3.720;2023-01-29T14:48:19;7.40;99.00
39493;DHT22;25176;51.060;3.720;2023-01-29T14:51:06;7.40;99.00
39493;DHT22;25176;51.060;3.720;2023-01-29T14:53:41;7.30;99.10
39493;DHT22;25176;51.060;3.720;2023-01-29T14:58:38;7.10;99.50
39493;DHT22;25176;51.060;3.720;2023-01-29T15:01:12;7.10;99.60
39493;DHT22;25176;51.060;3.720;2023-01-29T15:03:46;7.30;99.50
39493;DHT22;25176;51.060;3.720;2023-01-29T15:06:18;7.30;99.60
39493;DHT22;25176;51.060;3.720;2023-01-29T15:08:46;7.20;99.70
39493;DHT22;25176;51.060;3.720;2023-01-29T15:11:20;7.20;99.70
39493;DHT22;25176;51.060;3.720;2023-01-29T15:14:32;7.20;99.60
39493;DHT22;25176;51.060;3.720;2023-01-29T15:19:41;7.10;99.90
39493;DHT22;25176;51.060;3.720;2023-01-29T15:22:13;7.00;99.90
39493;DHT22;25176;51.060;3.720;2023-01-29T15:24:39;7.00;99.90
39493;DHT22;25176;51.060;3.720;2023-01-29T15:27:06;7.10;99.90
39493;DHT22;25176;51.060;3.720;2023-01-29T15:29:34;7.10;99.90
39493;DHT22;25176;51.060;3.720;2023-01-29T15:31:59;7.10;99.90
39493;DHT22;25176;51.060;3.720;2023-01-29T15:34:25;7.00;99.90
39493;DHT22;25176;51.060;3.720;2023-01-29T15:36:51;7.10;99.90
39493;DHT22;25176;51.060;3.720;2023-01-29T15:39:17;7.10;99.90
39493;DHT22;25176;51.060;3.720;2023-01-29T15:41:43;7.10;99.90
39493;DHT22;25176;51.060;3.720;2023-01-29T15:44:13;7.00;99.90
39493;DHT22;25176;51.060;3.720;2023-01-29T15:46:41;6.80;99.90
39493;DHT22;25176;51.060;3.720;2023-01-29T15:49:07;6.80;99.90
39493;DHT22;25176;51.060;3.720;2023-01-29T15:51:33;6.90;99.90
39493;DHT22;25176;51.060;3.720;2023-01-29T15:54:00;6.80;99.90
39493;DHT22;25176;51.060;3.720;2023-01-29T15:56:28;6.80;99.90
39493;DHT22;25176;51.060;3.720;2023-01-29T15:58:56;6.90;99.90
39493;DHT22;25176;51.060;3.720;2023-01-29T16:01:25;6.90;99.90
39493;DHT22;25176;51.060;3.720;2023-01-29T16:03:50;6.80;99.90
39493;DHT22;25176;51.060;3.720;2023-01-29T16:06:18;6.70;99.90
39493;DHT22;25176;51.060;3.720;2023-01-29T16:08:51;6.70;99.90
39493;DHT22;25176;51.060;3.720;2023-01-29T16:11:17;6.70;99.90
39493;DHT22;25176;51.060;3.720;2023-01-29T16:13:43;6.90;99.90
39493;DHT22;25176;51.060;3.720;2023-01-29T16:18:43;6.90;99.90
39493;DHT22;25176;51.060;3.720;2023-01-29T16:21:13;6.80;99.90
39493;DHT22;25176;51.060;3.720;2023-01-29T16:23:40;6.70;99.90
39493;DHT22;25176;51.060;3.720;2023-01-29T16:26:07;6.70;99.90
39493;DHT22;25176;51.060;3.720;2023-01-29T16:28:38;6.70;99.90
39493;DHT22;25176;51.060;3.720;2023-01-29T16:31:03;6.60;99.90
39493;DHT22;25176;51.060;3.720;2023-01-29T16:33:33;6.60;99.90
39493;DHT22;25176;51.060;3.720;2023-01-29T16:35:59;6.60;99.90
39493;DHT22;25176;51.060;3.720;2023-01-29T16:38:28;6.60;99.90
39493;DHT22;25176;51.060;3.720;2023-01-29T16:41:12;6.70;99.90
39493;DHT22;25176;51.060;3.720;2023-01-29T16:46:04;6.60;99.90
39493;DHT22;25176;51.060;3.720;2023-01-29T16:48:38;6.70;99.90
39493;DHT22;25176;51.060;3.720;2023-01-29T16:51:04;6.70;99.90
39493;DHT22;25176;51.060;3.720;2023-01-29T16:53:30;6.60;99.90
39493;DHT22;25176;51.060;3.720;2023-01-29T16:56:00;6.60;99.90
39493;DHT22;25176;51.060;3.720;2023-01-29T16:58:26;6.60;99.90
39493;DHT22;25176;51.060;3.720;2023-01-29T17:00:55;6.70;99.90
39493;DHT22;25176;51.060;3.720;2023-01-29T17:03:23;6.70;99.90
39493;DHT22;25176;51.060;3.720;2023-01-29T17:05:49;6.70;99.90
39493;DHT22;25176;51.060;3.720;2023-01-29T17:08:19;6.50;99.90
39493;DHT22;25176;51.060;3.720;2023-01-29T17:10:46;6.50;99.90
39493;DHT22;25176;51.060;3.720;2023-01-29T17:16:00;6.30;99.90
39493;DHT22;25176;51.060;3.720;2023-01-29T17:18:27;6.40;99.90
39493;DHT22;25176;51.060;3.720;2023-01-29T17:20:52;6.40;99.90
39493;DHT22;25176;51.060;3.720;2023-01-29T17:23:18;6.30;99.90
39493;DHT22;25176;51.060;3.720;2023-01-29T17:25:44;6.30;99.90
39493;DHT22;25176;51.060;3.720;2023-01-29T17:28:14;6.20;99.90
39493;DHT22;25176;51.060;3.720;2023-01-29T17:30:39;6.30;99.90
39493;DHT22;25176;51.060;3.720;2023-01-29T17:33:15;6.10;99.90
39493;DHT22;25176;51.060;3.720;2023-01-29T17:35:41;6.10;99.90
39493;DHT22;25176;51.060;3.720;2023-01-29T17:38:11;6.10;99.90
39493;DHT22;25176;51.060;3.720;2023-01-29T17:43:02;6.00;99.90
39493;DHT22;25176;51.060;3.720;2023-01-29T17:45:27;6.00;99.90
39493;DHT22;25176;51.060;3.720;2023-01-29T17:47:53;6.00;99.90
39493;DHT22;25176;51.060;3.720;2023-01-29T17:50:22;6.10;99.90
39493;DHT22;25176;51.060;3.720;2023-01-29T17:52:49;6.10;99.90
39493;DHT22;25176;51.060;3.720;2023-01-29T17:55:14;6.10;99.90
39493;DHT22;25176;51.060;3.720;2023-01-29T17:57:40;6.20;99.90
39493;DHT22;25176;51.060;3.720;2023-01-29T18:00:19;6.30;99.90
39493;DHT22;25176;51.060;3.720;2023-01-29T18:02:44;6.20;99.90
39493;DHT22;25176;51.060;3.720;2023-01-29T18:05:10;6.20;99.90
39493;DHT22;25176;51.060;3.720;2023-01-29T18:07:36;6.10;99.90
39493;DHT22;25176;51.060;3.720;2023-01-29T18:10:02;6.10;99.90